Time;durP1;ratioP1;P1;durP2;ratioP2;P2;SDS_P1;SDS_P2;PMS_P1;PMS_P2;Temp;Humidity;BMP_temperature;BMP_pressure;BME280_temperature;BME280_humidity;BME280_pressure;Samples;Min_cycle;Max_cycle;Signal;HPM_P1;HPM_P2
2022/01/09 00:00:26;;;;;;;18.38;9.30;;;;;;;;;;5136957;27;20082;-79
2022/01/09 00:02:53;;;;;;;22.35;11.23;;;;;;;;;;5119852;27;20052;-80
2022/01/09 00:05:20;;;;;;;19.25;10.75;;;;;;;;;;5115916;27;20047;-80
2022/01/09 00:07:46;;;;;;;21.17;10.48;;;;;;;;;;5145765;27;20051;-78
2022/01/09 00:10:13;;;;;;;26.58;11.02;;;;;;;;;;5142764;27;20081;-80
2022/01/09 00:12:39;;;;;;;22.50;10.52;;;;;;;;;;5125973;27;20580;-80
2022/01/09 00:15:06;;;;;;;21.05;10.40;;;;;;;;;;5138085;27;20106;-80
2022/01/09 00:17:33;;;;;;;22.73;10.27;;;;;;;;;;5146095;27;20157;-80
2022/01/09 00:19:59;;;;;;;19.42;9.38;;;;;;;;;;5154452;27;20078;-80
2022/01/09 00:22:40;;;;;;;21.30;9.60;;;;;;;;;;5137560;27;20055;-80
2022/01/09 00:25:07;;;;;;;19.33;8.05;;;;;;;;;;5136910;27;20047;-78
2022/01/09 00:27:33;;;;;;;17.20;8.35;;;;;;;;;;5155998;27;20051;-80
2022/01/09 00:30:00;;;;;;;17.83;8.35;;;;;;;;;;5144984;27;20093;-80
2022/01/09 00:32:26;;;;;;;17.90;8.18;;;;;;;;;;5138265;27;20055;-80
2022/01/09 00:34:52;;;;;;;18.60;6.68;;;;;;;;;;5137609;27;20059;-79
2022/01/09 00:37:19;;;;;;;14.48;5.18;;;;;;;;;;5136862;27;20395;-80
2022/01/09 00:39:45;;;;;;;10.73;3.40;;;;;;;;;;5169704;27;20581;-80
2022/01/09 00:42:11;;;;;;;14.73;3.28;;;;;;;;;;5156028;27;20090;-80
2022/01/09 00:44:38;;;;;;;11.48;3.20;;;;;;;;;;5155590;27;20134;-79
2022/01/09 00:47:07;;;;;;;10.60;2.50;;;;;;;;;;5154601;27;20051;-80
2022/01/09 00:49:34;;;;;;;13.02;3.13;;;;;;;;;;5154642;27;20063;-80
2022/01/09 00:52:00;;;;;;;15.65;2.40;;;;;;;;;;5154951;27;20508;-79
2022/01/09 00:54:26;;;;;;;20.10;2.53;;;;;;;;;;5134108;27;20134;-80
2022/01/09 00:56:53;;;;;;;20.35;2.45;;;;;;;;;;5136990;27;20055;-79
2022/01/09 00:59:19;;;;;;;21.48;2.88;;;;;;;;;;5156191;27;20495;-80
2022/01/09 01:01:45;;;;;;;20.38;4.20;;;;;;;;;;5137652;27;20517;-80
2022/01/09 01:04:12;;;;;;;24.27;3.47;;;;;;;;;;5140259;27;20619;-80
2022/01/09 01:06:38;;;;;;;23.17;3.78;;;;;;;;;;5143112;27;20066;-80
2022/01/09 01:09:04;;;;;;;21.40;3.20;;;;;;;;;;5136936;27;20094;-80
2022/01/09 01:11:31;;;;;;;40.80;4.28;;;;;;;;;;5144653;27;20095;-80
2022/01/09 01:13:57;;;;;;;29.52;4.15;;;;;;;;;;5146575;27;20051;-79
2022/01/09 01:16:24;;;;;;;27.88;3.95;;;;;;;;;;5155836;27;20101;-80
2022/01/09 01:18:55;;;;;;;32.15;4.65;;;;;;;;;;5155450;27;20035;-80
2022/01/09 01:21:30;;;;;;;33.95;4.82;;;;;;;;;;5154409;27;20113;-79
2022/01/09 01:23:57;;;;;;;40.08;4.18;;;;;;;;;;5154752;27;20071;-79
2022/01/09 01:26:23;;;;;;;30.42;4.25;;;;;;;;;;5153994;27;20052;-79
2022/01/09 01:28:49;;;;;;;35.03;4.55;;;;;;;;;;5117454;27;20035;-79
2022/01/09 01:31:16;;;;;;;39.88;4.75;;;;;;;;;;5116864;27;20056;-79
2022/01/09 01:33:42;;;;;;;31.13;5.30;;;;;;;;;;5129855;27;20051;-78
2022/01/09 01:36:08;;;;;;;38.42;4.47;;;;;;;;;;5149053;27;20071;-78
2022/01/09 01:38:40;;;;;;;43.85;4.28;;;;;;;;;;5140320;27;20130;-79
2022/01/09 01:41:07;;;;;;;34.25;4.38;;;;;;;;;;5157750;27;20043;-79
2022/01/09 01:43:33;;;;;;;34.08;4.88;;;;;;;;;;5162503;27;20036;-79
2022/01/09 01:46:02;;;;;;;31.02;4.05;;;;;;;;;;5147856;27;20055;-79
2022/01/09 01:48:29;;;;;;;34.25;4.13;;;;;;;;;;5167704;27;20043;-80
2022/01/09 01:50:56;;;;;;;34.05;5.68;;;;;;;;;;5166375;27;20039;-78
2022/01/09 01:53:23;;;;;;;24.13;3.28;;;;;;;;;;5164370;27;20097;-79
2022/01/09 01:55:54;;;;;;;31.70;3.80;;;;;;;;;;5168001;27;20051;-79
2022/01/09 01:58:21;;;;;;;40.70;4.15;;;;;;;;;;5149738;27;20103;-79
2022/01/09 02:00:47;;;;;;;27.95;3.70;;;;;;;;;;5162003;27;20055;-79
2022/01/09 02:03:13;;;;;;;31.75;4.07;;;;;;;;;;5129899;27;20143;-79
2022/01/09 02:05:41;;;;;;;27.95;3.75;;;;;;;;;;5153956;27;20019;-79
2022/01/09 02:08:08;;;;;;;32.15;4.05;;;;;;;;;;5169683;27;20240;-79
2022/01/09 02:10:34;;;;;;;30.65;3.58;;;;;;;;;;5148343;27;20079;-79
2022/01/09 02:13:00;;;;;;;32.63;3.88;;;;;;;;;;5129259;27;20105;-79
2022/01/09 02:15:34;;;;;;;26.23;4.25;;;;;;;;;;5141570;27;20781;-78
2022/01/09 02:18:02;;;;;;;24.15;3.58;;;;;;;;;;5169554;27;20113;-79
2022/01/09 02:20:29;;;;;;;28.05;3.17;;;;;;;;;;5159642;27;20051;-80
2022/01/09 02:22:56;;;;;;;26.25;3.67;;;;;;;;;;5157359;27;20055;-80
2022/01/09 02:25:22;;;;;;;25.70;3.20;;;;;;;;;;5141398;27;20085;-80
2022/01/09 02:27:49;;;;;;;29.35;3.88;;;;;;;;;;5140678;27;20048;-79
2022/01/09 02:30:15;;;;;;;32.33;3.85;;;;;;;;;;5145429;27;20066;-79
2022/01/09 02:32:41;;;;;;;22.17;4.53;;;;;;;;;;5157361;27;20525;-79
2022/01/09 02:35:08;;;;;;;28.77;3.75;;;;;;;;;;5146479;27;20066;-80
2022/01/09 02:37:34;;;;;;;24.90;3.78;;;;;;;;;;5149296;27;20050;-79
2022/01/09 02:40:01;;;;;;;25.58;3.53;;;;;;;;;;5146822;27;20035;-79
2022/01/09 02:42:29;;;;;;;22.33;3.75;;;;;;;;;;5147300;27;20081;-79
2022/01/09 02:44:56;;;;;;;30.30;3.70;;;;;;;;;;5159382;27;20870;-79
2022/01/09 02:47:23;;;;;;;20.70;3.65;;;;;;;;;;5155745;27;20059;-79
2022/01/09 02:49:52;;;;;;;20.40;2.85;;;;;;;;;;5139214;27;20051;-80
2022/01/09 02:55:14;;;;;;;20.35;3.55;;;;;;;;;;5153116;27;20051;-79
2022/01/09 02:57:41;;;;;;;30.42;3.58;;;;;;;;;;5123724;27;20043;-78
2022/01/09 03:00:13;;;;;;;19.67;2.55;;;;;;;;;;5135666;27;20919;-80
2022/01/09 03:02:39;;;;;;;25.85;3.45;;;;;;;;;;5135973;27;20059;-79
2022/01/09 03:05:06;;;;;;;26.40;3.67;;;;;;;;;;5137117;27;20032;-79
2022/01/09 03:07:32;;;;;;;27.10;3.47;;;;;;;;;;5145698;27;20050;-80
2022/01/09 03:09:59;;;;;;;25.33;3.20;;;;;;;;;;5138562;27;20055;-79
2022/01/09 03:12:25;;;;;;;25.88;4.03;;;;;;;;;;5136678;27;20075;-79
2022/01/09 03:14:52;;;;;;;26.48;3.38;;;;;;;;;;5146680;27;20055;-79
2022/01/09 03:17:18;;;;;;;21.83;3.20;;;;;;;;;;5138378;27;20059;-79
2022/01/09 03:19:46;;;;;;;20.63;3.15;;;;;;;;;;5120751;27;20070;-79
2022/01/09 03:22:12;;;;;;;27.27;3.22;;;;;;;;;;5118056;27;20047;-79
2022/01/09 03:24:38;;;;;;;20.58;3.15;;;;;;;;;;5146459;27;20488;-79
2022/01/09 03:27:05;;;;;;;21.25;3.22;;;;;;;;;;5152286;27;20101;-80
2022/01/09 03:29:32;;;;;;;28.80;3.67;;;;;;;;;;5143325;27;20083;-80
2022/01/09 03:31:58;;;;;;;14.85;2.70;;;;;;;;;;5154228;27;20035;-79
2022/01/09 03:34:24;;;;;;;20.73;3.00;;;;;;;;;;5156367;27;20043;-79
2022/01/09 03:36:51;;;;;;;21.08;3.35;;;;;;;;;;5138189;27;20055;-79
2022/01/09 03:39:17;;;;;;;22.20;3.15;;;;;;;;;;5158072;27;20042;-79
2022/01/09 03:41:43;;;;;;;18.67;2.88;;;;;;;;;;5153402;27;20086;-79
2022/01/09 03:44:10;;;;;;;21.33;3.70;;;;;;;;;;5118868;27;20125;-80
2022/01/09 03:46:36;;;;;;;20.90;2.92;;;;;;;;;;5146758;27;20047;-80
2022/01/09 03:49:03;;;;;;;34.45;3.05;;;;;;;;;;5163520;27;20772;-80
2022/01/09 03:51:34;;;;;;;21.80;2.97;;;;;;;;;;5158425;27;20053;-79
2022/01/09 03:54:00;;;;;;;;;;;;;;;;;;5139441;27;20209;-78
2022/01/09 03:56:27;;;;;;;14.43;1.90;;;;;;;;;;5136562;27;46501;-79
2022/01/09 03:58:54;;;;;;;13.70;2.20;;;;;;;;;;5139772;27;20083;-79
2022/01/09 04:01:20;;;;;;;19.63;2.85;;;;;;;;;;5139183;27;20057;-80
2022/01/09 04:03:47;;;;;;;22.10;2.42;;;;;;;;;;5139883;27;20047;-80
2022/01/09 04:06:13;;;;;;;17.63;2.38;;;;;;;;;;5148053;27;20055;-80
2022/01/09 04:08:40;;;;;;;17.58;2.92;;;;;;;;;;5158488;27;20051;-80
2022/01/09 04:11:07;;;;;;;17.48;3.08;;;;;;;;;;5139623;27;20574;-79
2022/01/09 04:13:33;;;;;;;19.00;2.22;;;;;;;;;;5139740;27;20144;-79
2022/01/09 04:15:59;;;;;;;15.98;2.72;;;;;;;;;;5157589;27;20055;-79
2022/01/09 04:18:27;;;;;;;19.33;2.58;;;;;;;;;;5137899;27;20047;-80
2022/01/09 04:20:54;;;;;;;14.05;2.47;;;;;;;;;;5156284;27;20096;-80
2022/01/09 04:23:21;;;;;;;23.00;3.50;;;;;;;;;;5157551;27;20140;-79
2022/01/09 04:25:48;;;;;;;17.48;2.45;;;;;;;;;;5156898;27;20634;-79
2022/01/09 04:28:14;;;;;;;23.80;2.78;;;;;;;;;;5159046;27;20599;-80
2022/01/09 04:30:41;;;;;;;12.82;2.45;;;;;;;;;;5138906;27;20104;-80
2022/01/09 04:33:09;;;;;;;17.48;2.47;;;;;;;;;;5156907;27;20051;-79
2022/01/09 04:35:36;;;;;;;12.23;2.30;;;;;;;;;;5136186;27;20508;-79
2022/01/09 04:38:02;;;;;;;17.10;3.90;;;;;;;;;;5121750;27;20083;-79
2022/01/09 04:40:28;;;;;;;17.88;2.90;;;;;;;;;;5159094;27;20105;-79
2022/01/09 04:42:58;;;;;;;14.80;2.25;;;;;;;;;;5158707;27;20050;-79
2022/01/09 04:45:26;;;;;;;15.75;2.83;;;;;;;;;;5178675;27;20046;-79
2022/01/09 04:47:54;;;;;;;17.63;2.78;;;;;;;;;;5170165;27;20078;-79
2022/01/09 04:50:25;;;;;;;16.05;2.80;;;;;;;;;;5134412;27;20734;-80
2022/01/09 04:52:57;;;;;;;17.27;3.03;;;;;;;;;;5130962;27;20133;-80
2022/01/09 04:55:24;;;;;;;18.30;2.78;;;;;;;;;;5139007;27;20051;-80
2022/01/09 04:57:50;;;;;;;16.73;2.78;;;;;;;;;;5156341;27;20058;-79
2022/01/09 05:00:17;;;;;;;13.27;2.60;;;;;;;;;;5137452;27;20082;-79
2022/01/09 05:02:43;;;;;;;14.27;2.67;;;;;;;;;;5149632;27;20106;-79
2022/01/09 05:05:10;;;;;;;12.02;2.47;;;;;;;;;;5144257;27;20047;-80
2022/01/09 05:07:37;;;;;;;18.13;3.13;;;;;;;;;;5149876;27;20056;-80
2022/01/09 05:10:04;;;;;;;17.88;2.92;;;;;;;;;;5135273;27;20559;-79
2022/01/09 05:12:31;;;;;;;12.23;2.20;;;;;;;;;;5135971;27;20556;-79
2022/01/09 05:14:57;;;;;;;15.13;2.30;;;;;;;;;;5136182;27;20051;-79
2022/01/09 05:17:23;;;;;;;19.02;2.55;;;;;;;;;;5139645;27;20047;-78
2022/01/09 05:19:57;;;;;;;18.63;3.83;;;;;;;;;;5130689;27;20051;-79
2022/01/09 05:22:24;;;;;;;23.10;3.17;;;;;;;;;;5124037;27;20051;-78
2022/01/09 05:24:51;;;;;;;17.67;2.45;;;;;;;;;;5128307;27;20032;-79
2022/01/09 05:27:17;;;;;;;9.27;2.10;;;;;;;;;;5118263;27;20055;-79
2022/01/09 05:29:44;;;;;;;15.07;2.20;;;;;;;;;;5160000;27;20047;-80
2022/01/09 05:32:10;;;;;;;21.92;2.58;;;;;;;;;;5147860;27;20304;-80
2022/01/09 05:34:36;;;;;;;14.07;2.38;;;;;;;;;;5136882;27;20059;-79
2022/01/09 05:37:04;;;;;;;14.88;2.15;;;;;;;;;;5136541;27;20078;-79
2022/01/09 05:39:31;;;;;;;16.60;2.45;;;;;;;;;;5172042;27;20047;-79
2022/01/09 05:41:58;;;;;;;16.65;2.60;;;;;;;;;;5136649;27;20055;-79
2022/01/09 05:44:27;;;;;;;16.55;2.40;;;;;;;;;;5153469;27;20039;-79
2022/01/09 05:46:54;;;;;;;20.55;2.63;;;;;;;;;;5155379;27;20090;-79
2022/01/09 05:49:20;;;;;;;13.85;1.95;;;;;;;;;;5156182;27;20085;-79
2022/01/09 05:51:46;;;;;;;16.05;2.67;;;;;;;;;;5153331;27;20086;-80
2022/01/09 05:54:13;;;;;;;12.35;1.90;;;;;;;;;;5134891;27;20082;-80
2022/01/09 05:56:39;;;;;;;12.95;1.70;;;;;;;;;;5152782;27;20914;-79
2022/01/09 05:59:05;;;;;;;14.30;2.08;;;;;;;;;;5127357;27;20105;-79
2022/01/09 06:01:32;;;;;;;11.48;2.22;;;;;;;;;;5126477;27;20046;-80
2022/01/09 06:03:58;;;;;;;15.07;2.08;;;;;;;;;;5148721;27;20094;-79
2022/01/09 06:06:25;;;;;;;13.50;2.20;;;;;;;;;;5135172;27;20045;-80
2022/01/09 06:08:51;;;;;;;13.18;2.00;;;;;;;;;;5149046;27;20055;-79
2022/01/09 06:11:17;;;;;;;16.45;2.20;;;;;;;;;;5168837;27;20103;-79
2022/01/09 06:13:44;;;;;;;12.13;1.77;;;;;;;;;;5150159;27;20086;-79
2022/01/09 06:16:10;;;;;;;15.30;2.15;;;;;;;;;;5134969;27;20140;-79
2022/01/09 06:18:36;;;;;;;15.57;2.55;;;;;;;;;;5134791;27;20043;-78
2022/01/09 06:21:03;;;;;;;12.70;1.80;;;;;;;;;;5134656;27;20051;-79
2022/01/09 06:23:29;;;;;;;10.57;2.10;;;;;;;;;;5153162;27;20129;-80
2022/01/09 06:25:56;;;;;;;12.07;2.10;;;;;;;;;;5133299;27;20055;-79
2022/01/09 06:28:22;;;;;;;21.25;2.38;;;;;;;;;;5150348;27;20090;-79
2022/01/09 06:30:49;;;;;;;11.15;2.10;;;;;;;;;;5155964;27;20031;-79
2022/01/09 06:33:15;;;;;;;13.90;2.78;;;;;;;;;;5152618;27;20059;-79
2022/01/09 06:35:42;;;;;;;9.55;1.98;;;;;;;;;;5125163;27;20054;-79
2022/01/09 06:38:08;;;;;;;14.40;2.20;;;;;;;;;;5125559;27;20054;-80
2022/01/09 06:40:35;;;;;;;12.90;2.25;;;;;;;;;;5134518;27;20055;-79
2022/01/09 06:43:02;;;;;;;14.90;2.25;;;;;;;;;;5134334;27;20090;-79
2022/01/09 06:45:28;;;;;;;14.40;2.05;;;;;;;;;;5153845;27;20056;-79
2022/01/09 06:47:55;;;;;;;11.20;1.90;;;;;;;;;;5132941;27;20148;-79
2022/01/09 06:50:22;;;;;;;16.75;2.45;;;;;;;;;;5123768;27;20052;-80
2022/01/09 06:52:48;;;;;;;17.80;2.53;;;;;;;;;;5140293;27;20070;-80
2022/01/09 06:55:15;;;;;;;16.85;2.42;;;;;;;;;;5134449;27;20079;-78
2022/01/09 06:57:42;;;;;;;10.55;1.70;;;;;;;;;;5149443;27;20962;-79
2022/01/09 07:00:10;;;;;;;11.43;2.28;;;;;;;;;;5154265;27;20914;-80
2022/01/09 07:02:36;;;;;;;11.68;2.63;;;;;;;;;;5132602;27;20077;-79
2022/01/09 07:05:03;;;;;;;12.90;2.40;;;;;;;;;;5129781;27;20970;-78
2022/01/09 07:07:30;;;;;;;12.93;2.08;;;;;;;;;;5149267;27;20446;-79
2022/01/09 07:09:56;;;;;;;11.93;1.70;;;;;;;;;;5134523;27;20101;-79
2022/01/09 07:12:22;;;;;;;11.10;2.17;;;;;;;;;;5132420;27;20066;-79
2022/01/09 07:14:49;;;;;;;9.20;1.60;;;;;;;;;;5136311;27;20109;-79
2022/01/09 07:17:15;;;;;;;12.48;2.33;;;;;;;;;;5147413;27;20176;-81
2022/01/09 07:19:41;;;;;;;9.75;2.13;;;;;;;;;;5152131;27;20043;-79
2022/01/09 07:22:08;;;;;;;16.55;2.00;;;;;;;;;;5126908;27;22499;-78
2022/01/09 07:24:34;;;;;;;15.52;2.58;;;;;;;;;;5127257;27;20144;-78
2022/01/09 07:27:01;;;;;;;12.48;2.05;;;;;;;;;;5144185;27;20119;-79
2022/01/09 07:29:27;;;;;;;13.23;2.60;;;;;;;;;;5136027;27;20074;-79
2022/01/09 07:31:54;;;;;;;12.18;1.77;;;;;;;;;;5137795;27;20117;-78
2022/01/09 07:34:20;;;;;;;11.15;2.17;;;;;;;;;;5154463;27;20047;-79
2022/01/09 07:36:47;;;;;;;10.93;1.73;;;;;;;;;;5149026;27;20407;-78
2022/01/09 07:39:13;;;;;;;11.48;1.85;;;;;;;;;;5144588;27;20130;-79
2022/01/09 07:41:40;;;;;;;10.75;1.90;;;;;;;;;;5133141;27;20517;-79
2022/01/09 07:44:07;;;;;;;13.93;2.58;;;;;;;;;;5131592;27;21077;-78
2022/01/09 07:46:33;;;;;;;8.82;2.20;;;;;;;;;;5159834;27;20132;-78
2022/01/09 07:49:00;;;;;;;12.05;1.98;;;;;;;;;;5145804;27;20152;-79
2022/01/09 07:51:26;;;;;;;8.35;1.80;;;;;;;;;;5156129;27;20086;-79
2022/01/09 07:54:13;;;;;;;13.18;2.63;;;;;;;;;;5146502;27;20051;-79
2022/01/09 07:56:39;;;;;;;6.45;1.60;;;;;;;;;;5142748;27;20055;-79
2022/01/09 07:59:06;;;;;;;14.48;2.78;;;;;;;;;;5142946;27;20039;-78
2022/01/09 08:01:32;;;;;;;7.22;1.83;;;;;;;;;;5166142;27;20197;-79
2022/01/09 08:03:58;;;;;;;11.43;2.13;;;;;;;;;;5133857;27;20081;-79
2022/01/09 08:06:25;;;;;;;11.45;1.58;;;;;;;;;;5134748;27;20055;-80
2022/01/09 08:08:51;;;;;;;7.53;1.80;;;;;;;;;;5137466;27;20051;-80
2022/01/09 08:11:18;;;;;;;8.82;1.65;;;;;;;;;;5135315;27;20074;-79
2022/01/09 08:13:47;;;;;;;9.02;1.90;;;;;;;;;;5131961;27;20512;-79
2022/01/09 08:16:15;;;;;;;12.25;1.90;;;;;;;;;;5140813;27;20083;-80
2022/01/09 08:18:41;;;;;;;11.23;2.03;;;;;;;;;;5159626;27;20043;-77
2022/01/09 08:21:07;;;;;;;11.82;2.17;;;;;;;;;;5134092;27;20111;-79
2022/01/09 08:23:34;;;;;;;14.00;1.88;;;;;;;;;;5136022;27;20062;-79
2022/01/09 08:26:00;;;;;;;17.73;2.28;;;;;;;;;;5135924;27;20055;-79
2022/01/09 08:28:26;;;;;;;13.20;2.13;;;;;;;;;;5122918;27;20082;-78
2022/01/09 08:30:53;;;;;;;17.67;2.30;;;;;;;;;;5122252;27;20044;-78
2022/01/09 08:33:24;;;;;;;10.02;2.00;;;;;;;;;;5138706;27;20576;-78
2022/01/09 08:35:50;;;;;;;13.10;2.00;;;;;;;;;;5158185;27;20476;-77
2022/01/09 08:38:17;;;;;;;12.80;2.05;;;;;;;;;;5133892;27;20940;-78
2022/01/09 08:40:43;;;;;;;16.67;2.45;;;;;;;;;;5141663;27;20073;-78
2022/01/09 08:43:09;;;;;;;13.98;1.80;;;;;;;;;;5139489;27;20039;-78
2022/01/09 08:45:36;;;;;;;11.30;1.95;;;;;;;;;;5159369;27;20101;-78
2022/01/09 08:48:02;;;;;;;11.15;1.90;;;;;;;;;;5143795;27;20063;-78
2022/01/09 08:50:31;;;;;;;9.63;2.15;;;;;;;;;;5127834;27;20044;-77
2022/01/09 08:52:58;;;;;;;9.27;1.75;;;;;;;;;;5121348;27;20054;-78
2022/01/09 08:55:24;;;;;;;9.27;1.52;;;;;;;;;;5123778;27;20105;-78
2022/01/09 08:57:50;;;;;;;18.70;2.03;;;;;;;;;;5135649;27;20050;-78
2022/01/09 09:00:18;;;;;;;11.85;2.03;;;;;;;;;;5142211;27;20055;-77
2022/01/09 09:02:44;;;;;;;13.00;1.90;;;;;;;;;;5144242;27;20042;-78
2022/01/09 09:05:11;;;;;;;12.00;1.80;;;;;;;;;;5176795;27;20073;-77
2022/01/09 09:07:37;;;;;;;11.55;2.30;;;;;;;;;;5143840;27;20050;-78
2022/01/09 09:10:04;;;;;;;14.38;2.58;;;;;;;;;;5144640;27;20039;-78
2022/01/09 09:12:31;;;;;;;12.82;4.03;;;;;;;;;;5158283;27;20528;-78
2022/01/09 09:15:03;;;;;;;11.57;2.40;;;;;;;;;;5159275;27;20051;-78
2022/01/09 09:17:30;;;;;;;14.10;4.10;;;;;;;;;;5151645;27;20055;-77
2022/01/09 09:20:00;;;;;;;13.05;3.30;;;;;;;;;;5153323;27;20078;-78
2022/01/09 09:22:26;;;;;;;16.35;4.60;;;;;;;;;;5159416;27;20044;-78
2022/01/09 09:24:53;;;;;;;13.57;5.40;;;;;;;;;;5138923;27;20145;-78
2022/01/09 09:27:20;;;;;;;11.93;3.13;;;;;;;;;;5138281;27;20085;-78
2022/01/09 09:29:46;;;;;;;9.57;2.17;;;;;;;;;;5161433;27;20047;-78
2022/01/09 09:32:16;;;;;;;21.10;2.97;;;;;;;;;;5136416;27;20051;-78
2022/01/09 09:34:42;;;;;;;13.88;2.72;;;;;;;;;;5136557;27;20098;-79
2022/01/09 09:37:10;;;;;;;6.78;1.88;;;;;;;;;;5156951;27;20105;-79
2022/01/09 09:39:36;;;;;;;10.38;1.88;;;;;;;;;;5138402;27;20905;-78
2022/01/09 09:42:02;;;;;;;8.98;1.52;;;;;;;;;;5137550;27;20047;-79
2022/01/09 09:44:29;;;;;;;12.13;2.08;;;;;;;;;;5139066;27;20050;-79
2022/01/09 09:46:55;;;;;;;10.88;1.67;;;;;;;;;;5123787;27;20078;-79
2022/01/09 09:49:22;;;;;;;9.68;2.08;;;;;;;;;;5138101;27;20047;-80
2022/01/09 09:51:48;;;;;;;9.38;2.03;;;;;;;;;;5161622;27;20079;-80
2022/01/09 09:54:14;;;;;;;10.27;2.30;;;;;;;;;;5172375;27;20101;-80
2022/01/09 09:56:41;;;;;;;11.77;2.88;;;;;;;;;;5135568;27;20055;-80
2022/01/09 09:59:07;;;;;;;20.83;6.35;;;;;;;;;;5121642;27;20043;-80
2022/01/09 10:01:34;;;;;;;17.92;6.55;;;;;;;;;;5140850;27;20117;-79
2022/01/09 10:04:02;;;;;;;15.25;3.63;;;;;;;;;;5138930;27;20667;-80
2022/01/09 10:06:35;;;;;;;13.30;2.55;;;;;;;;;;5139097;27;20051;-80
2022/01/09 10:09:06;;;;;;;11.63;3.33;;;;;;;;;;5139395;27;20043;-79
2022/01/09 10:11:50;;;;;;;12.20;2.47;;;;;;;;;;5142143;27;20392;-80
2022/01/09 10:14:25;;;;;;;20.58;2.80;;;;;;;;;;5139383;27;20063;-80
2022/01/09 10:17:12;;;;;;;15.38;2.45;;;;;;;;;;5117273;27;20055;-80
2022/01/09 10:19:57;;;;;;;12.30;2.22;;;;;;;;;;5125593;27;21047;-80
2022/01/09 10:22:24;;;;;;;13.32;2.50;;;;;;;;;;5152205;27;20074;-80
2022/01/09 10:24:50;;;;;;;12.13;2.42;;;;;;;;;;5154328;27;20051;-80
2022/01/09 10:27:30;;;;;;;13.57;2.15;;;;;;;;;;5137507;27;20051;-80
2022/01/09 10:29:57;;;;;;;12.45;2.17;;;;;;;;;;5137197;27;20104;-80
2022/01/09 10:32:27;;;;;;;15.30;2.78;;;;;;;;;;5136393;27;20094;-79
2022/01/09 10:35:04;;;;;;;13.77;2.60;;;;;;;;;;5156617;27;20067;-79
2022/01/09 10:37:30;;;;;;;10.50;2.17;;;;;;;;;;5140185;27;20129;-79
2022/01/09 10:39:57;;;;;;;15.38;2.60;;;;;;;;;;5139258;27;20051;-80
2022/01/09 10:42:24;;;;;;;15.77;2.63;;;;;;;;;;5138596;27;20125;-79
2022/01/09 10:44:50;;;;;;;13.90;2.35;;;;;;;;;;5139765;27;20039;-80
2022/01/09 10:47:17;;;;;;;13.57;2.58;;;;;;;;;;5129227;27;20055;-79
2022/01/09 10:49:51;;;;;;;13.32;2.67;;;;;;;;;;5119360;27;20050;-80
2022/01/09 10:52:22;;;;;;;14.80;2.10;;;;;;;;;;5120235;27;20070;-80
2022/01/09 10:54:50;;;;;;;10.38;1.80;;;;;;;;;;5124325;27;20043;-79
2022/01/09 10:57:18;;;;;;;10.73;2.00;;;;;;;;;;5142321;27;20043;-79
2022/01/09 10:59:45;;;;;;;14.60;2.08;;;;;;;;;;5144949;27;20047;-79
2022/01/09 11:02:12;;;;;;;10.32;1.90;;;;;;;;;;5144198;27;20841;-80
2022/01/09 11:04:43;;;;;;;8.50;2.15;;;;;;;;;;5142488;27;20047;-79
2022/01/09 11:07:09;;;;;;;10.18;2.10;;;;;;;;;;5144572;27;20559;-80
2022/01/09 11:09:36;;;;;;;8.90;1.52;;;;;;;;;;5144539;27;20074;-80
2022/01/09 11:12:03;;;;;;;10.20;2.35;;;;;;;;;;5144869;27;20047;-80
2022/01/09 11:14:35;;;;;;;11.10;1.83;;;;;;;;;;5163483;27;20047;-80
2022/01/09 11:17:03;;;;;;;10.77;2.15;;;;;;;;;;5144147;27;20039;-79
2022/01/09 11:19:30;;;;;;;11.13;2.45;;;;;;;;;;5144617;27;20092;-80
2022/01/09 11:21:59;;;;;;;8.55;1.55;;;;;;;;;;5153783;27;20091;-79
2022/01/09 11:24:31;;;;;;;9.82;1.77;;;;;;;;;;5123768;27;20056;-80
2022/01/09 11:26:59;;;;;;;11.02;1.77;;;;;;;;;;5138493;27;20062;-80
2022/01/09 11:29:32;;;;;;;7.80;1.50;;;;;;;;;;5171185;27;20837;-79
2022/01/09 11:32:02;;;;;;;10.40;1.60;;;;;;;;;;5143494;27;20039;-79
2022/01/09 11:34:35;;;;;;;10.70;1.38;;;;;;;;;;5162168;27;20093;-79
2022/01/09 11:37:07;;;;;;;11.27;1.83;;;;;;;;;;5162061;27;20055;-80
2022/01/09 11:39:37;;;;;;;12.55;2.28;;;;;;;;;;5157537;27;20521;-80
2022/01/09 11:42:14;;;;;;;13.88;1.88;;;;;;;;;;5164205;27;20043;-80
2022/01/09 11:44:45;;;;;;;8.82;1.48;;;;;;;;;;5163652;27;20043;-78
2022/01/09 11:47:11;;;;;;;6.32;1.38;;;;;;;;;;5181603;27;20054;-78
2022/01/09 11:49:39;;;;;;;9.10;1.50;;;;;;;;;;5159349;27;20895;-77
2022/01/09 11:52:08;;;;;;;9.25;1.58;;;;;;;;;;5141118;27;20066;-78
2022/01/09 11:54:51;;;;;;;11.90;1.98;;;;;;;;;;5160126;27;20074;-78
2022/01/09 11:57:38;;;;;;;11.93;1.92;;;;;;;;;;5121238;27;20078;-77
2022/01/09 12:00:06;;;;;;;6.38;1.35;;;;;;;;;;5139811;27;20591;-77
2022/01/09 12:02:33;;;;;;;10.07;1.85;;;;;;;;;;5130417;27;20121;-78
2022/01/09 12:05:05;;;;;;;10.18;1.90;;;;;;;;;;5141967;27;20047;-78
2022/01/09 12:07:32;;;;;;;16.13;2.72;;;;;;;;;;5140718;27;20059;-78
2022/01/09 12:09:59;;;;;;;13.93;1.92;;;;;;;;;;5138873;27;20063;-78
2022/01/09 12:12:31;;;;;;;8.57;1.85;;;;;;;;;;5155594;27;20055;-77
2022/01/09 12:15:01;;;;;;;17.23;2.53;;;;;;;;;;5154387;27;20058;-78
2022/01/09 12:17:33;;;;;;;9.00;1.58;;;;;;;;;;5181464;27;20030;-78
2022/01/09 12:20:12;;;;;;;11.93;1.80;;;;;;;;;;5158037;27;20050;-77
2022/01/09 12:22:39;;;;;;;11.77;2.70;;;;;;;;;;5142405;27;20043;-77
2022/01/09 12:25:30;;;;;;;14.75;1.98;;;;;;;;;;5158230;27;20051;-78
2022/01/09 12:28:10;;;;;;;14.55;2.35;;;;;;;;;;5159253;27;20051;-77
2022/01/09 12:30:40;;;;;;;12.52;1.80;;;;;;;;;;5126806;27;20040;-78
2022/01/09 12:33:16;;;;;;;12.07;2.53;;;;;;;;;;5133247;27;21022;-78
2022/01/09 12:36:00;;;;;;;16.23;2.17;;;;;;;;;;5157911;27;20051;-78
2022/01/09 12:38:27;;;;;;;11.20;1.67;;;;;;;;;;5158087;27;20575;-78
2022/01/09 12:40:55;;;;;;;20.40;2.35;;;;;;;;;;5140059;27;20831;-77
2022/01/09 12:43:22;;;;;;;11.95;2.00;;;;;;;;;;5142458;27;20515;-78
2022/01/09 12:45:50;;;;;;;13.40;1.98;;;;;;;;;;5153494;27;20130;-78
2022/01/09 12:48:21;;;;;;;17.73;2.70;;;;;;;;;;5137448;27;20051;-78
2022/01/09 12:50:48;;;;;;;11.05;2.10;;;;;;;;;;5129108;27;20044;-78
2022/01/09 12:53:17;;;;;;;17.20;2.13;;;;;;;;;;5129830;27;20044;-77
2022/01/09 12:56:03;;;;;;;6.82;1.63;;;;;;;;;;5137318;27;20051;-77
2022/01/09 12:58:30;;;;;;;7.38;1.60;;;;;;;;;;5146673;27;20048;-78
2022/01/09 13:00:57;;;;;;;7.72;1.83;;;;;;;;;;5120864;27;20048;-78
2022/01/09 13:03:26;;;;;;;13.65;2.00;;;;;;;;;;5135703;27;20052;-78
2022/01/09 13:06:06;;;;;;;13.18;2.90;;;;;;;;;;5130540;27;20061;-78
2022/01/09 13:08:33;;;;;;;9.83;1.73;;;;;;;;;;5128217;27;20042;-79
2022/01/09 13:11:01;;;;;;;12.77;2.20;;;;;;;;;;5130521;27;20061;-78
2022/01/09 13:13:28;;;;;;;9.73;2.67;;;;;;;;;;5151444;27;20043;-78
2022/01/09 13:15:54;;;;;;;9.85;1.80;;;;;;;;;;5145691;27;20531;-78
2022/01/09 13:18:53;;;;;;;9.18;1.70;;;;;;;;;;5140988;27;20563;-78
2022/01/09 13:21:21;;;;;;;8.57;1.73;;;;;;;;;;5105268;27;20137;-78
2022/01/09 13:24:07;;;;;;;10.75;1.90;;;;;;;;;;5129550;27;20047;-78
2022/01/09 13:26:38;;;;;;;7.35;1.58;;;;;;;;;;5142971;27;20579;-78
2022/01/09 13:29:15;;;;;;;9.30;1.75;;;;;;;;;;5150282;27;20055;-78
2022/01/09 13:31:46;;;;;;;11.07;1.90;;;;;;;;;;5127953;27;20073;-78
2022/01/09 13:34:15;;;;;;;7.15;1.73;;;;;;;;;;5147257;27;20515;-78
2022/01/09 13:36:44;;;;;;;10.80;2.03;;;;;;;;;;5153640;27;20124;-78
2022/01/09 13:39:21;;;;;;;7.38;2.40;;;;;;;;;;5146217;27;20062;-78
2022/01/09 13:41:47;;;;;;;8.82;2.28;;;;;;;;;;5131503;27;20074;-78
2022/01/09 13:44:14;;;;;;;13.48;2.70;;;;;;;;;;5158956;27;20079;-78
2022/01/09 13:46:42;;;;;;;10.65;2.40;;;;;;;;;;5136323;27;20031;-78
2022/01/09 13:49:13;;;;;;;8.63;1.90;;;;;;;;;;5161627;27;20502;-78
2022/01/09 13:51:44;;;;;;;13.70;2.80;;;;;;;;;;5129084;27;20144;-78
2022/01/09 13:54:12;;;;;;;8.20;1.95;;;;;;;;;;5132882;27;20058;-78
2022/01/09 13:56:42;;;;;;;13.05;2.00;;;;;;;;;;5130786;27;20051;-78
2022/01/09 13:59:10;;;;;;;15.13;1.95;;;;;;;;;;5133066;27;20055;-78
2022/01/09 14:01:40;;;;;;;9.43;2.05;;;;;;;;;;5131157;27;20106;-78
2022/01/09 14:04:14;;;;;;;12.98;2.67;;;;;;;;;;5136195;27;20039;-78
2022/01/09 14:06:41;;;;;;;14.27;2.13;;;;;;;;;;5149655;27;20055;-78
2022/01/09 14:09:07;;;;;;;17.90;2.05;;;;;;;;;;5132452;27;20534;-78
2022/01/09 14:11:34;;;;;;;15.88;2.10;;;;;;;;;;5133074;27;20574;-79
2022/01/09 14:14:01;;;;;;;13.50;2.10;;;;;;;;;;5129672;27;20083;-78
2022/01/09 14:16:34;;;;;;;10.23;1.90;;;;;;;;;;5136527;27;20636;-78
2022/01/09 14:19:05;;;;;;;13.77;2.35;;;;;;;;;;5127493;27;20082;-79
2022/01/09 14:21:33;;;;;;;16.45;2.28;;;;;;;;;;5134633;27;20055;-78
2022/01/09 14:24:07;;;;;;;14.73;1.90;;;;;;;;;;5148116;27;20050;-78
2022/01/09 14:26:33;;;;;;;16.75;2.20;;;;;;;;;;5125260;27;20568;-78
2022/01/09 14:29:00;;;;;;;15.43;2.25;;;;;;;;;;5131453;27;20067;-78
2022/01/09 14:31:33;;;;;;;9.43;2.13;;;;;;;;;;5143168;27;20081;-78
2022/01/09 14:34:00;;;;;;;11.50;2.10;;;;;;;;;;5134027;27;20078;-78
2022/01/09 14:36:31;;;;;;;9.13;2.83;;;;;;;;;;5151855;27;20081;-78
2022/01/09 14:38:58;;;;;;;10.77;2.20;;;;;;;;;;5134181;27;20093;-77